Time;durP1;ratioP1;P1;durP2;ratioP2;P2;SDS_P1;SDS_P2;PMS_P1;PMS_P2;Temp;Humidity;BMP_temperature;BMP_pressure;BME280_temperature;BME280_humidity;BME280_pressure;Samples;Min_cycle;Max_cycle;Signal;HPM_P1;HPM_P2
2021/10/16 00:02:05;;;;;;;6.38;2.88;;;;;;;9.20;56.34;102189.25;4992967;28;123297;-70
2021/10/16 00:04:32;;;;;;;7.68;2.88;;;;;;;9.16;56.85;102185.81;5011724;28;123170;-70
2021/10/16 00:06:59;;;;;;;6.65;2.67;;;;;;;9.13;56.65;102184.06;5010032;28;109274;-70
2021/10/16 00:09:26;;;;;;;6.55;2.90;;;;;;;9.10;56.64;102189.41;5008350;28;109270;-70
2021/10/16 00:11:53;;;;;;;9.30;2.67;;;;;;;9.08;56.80;102191.22;5007432;28;123961;-69
2021/10/16 00:14:20;;;;;;;7.93;2.90;;;;;;;9.03;56.78;102193.06;5010868;28;123927;-70
2021/10/16 00:16:48;;;;;;;7.00;2.90;;;;;;;8.99;56.50;102198.44;4994782;28;108083;-70
2021/10/16 00:19:15;;;;;;;6.45;2.97;;;;;;;8.95;56.31;102189.69;5007717;28;109630;-70
2021/10/16 00:21:42;;;;;;;6.13;3.08;;;;;;;8.89;56.49;102195.03;5004353;28;123626;-69
2021/10/16 00:24:09;;;;;;;7.13;3.28;;;;;;;8.85;56.77;102193.34;5010230;28;124572;-70
2021/10/16 00:26:36;;;;;;;12.30;4.57;;;;;;;8.81;56.37;102195.16;5006009;28;109389;-70
2021/10/16 00:29:04;;;;;;;9.70;4.13;;;;;;;8.77;56.71;102191.69;5011141;28;109091;-70
2021/10/16 00:31:31;;;;;;;7.85;4.18;;;;;;;8.74;56.71;102194.41;5007189;28;124503;-70
2021/10/16 00:33:58;;;;;;;13.80;4.78;;;;;;;8.70;56.50;102190.09;5008687;28;123872;-69
2021/10/16 00:36:25;;;;;;;11.35;4.82;;;;;;;8.66;56.57;102183.06;5006938;28;109226;-70
2021/10/16 00:38:52;;;;;;;15.82;5.00;;;;;;;8.66;57.08;102188.34;5009068;28;110087;-70
2021/10/16 00:41:19;;;;;;;12.07;4.50;;;;;;;8.65;56.92;102191.91;5008865;28;123847;-70
2021/10/16 00:43:46;;;;;;;14.35;4.85;;;;;;;8.64;56.83;102184.88;4990335;28;123162;-70
2021/10/16 00:46:14;;;;;;;11.70;4.82;;;;;;;8.63;56.78;102188.44;5012062;28;109905;-70
2021/10/16 00:48:41;;;;;;;11.23;4.78;;;;;;;8.64;57.12;102184.88;5010548;28;108551;-70
2021/10/16 00:51:08;;;;;;;12.65;4.68;;;;;;;8.62;56.89;102184.03;4998067;28;123321;-70
2021/10/16 00:53:35;;;;;;;10.52;4.32;;;;;;;8.63;57.05;102188.44;4992484;28;124318;-70
2021/10/16 00:56:02;;;;;;;10.38;4.28;;;;;;;8.63;57.04;102188.44;5011248;28;109079;-69
2021/10/16 00:58:32;;;;;;;7.57;4.10;;;;;;;8.63;57.20;102182.28;4991749;28;107733;-70
2021/10/16 01:01:00;;;;;;;9.70;3.67;;;;;;;8.62;57.08;102186.66;4990666;28;123725;-69
2021/10/16 01:03:28;;;;;;;7.50;3.10;;;;;;;8.61;57.44;102179.66;4994297;28;124813;-70
2021/10/16 01:05:55;;;;;;;7.55;3.63;;;;;;;8.62;57.34;102170.81;4994466;28;108905;-70
2021/10/16 01:08:22;;;;;;;6.38;3.25;;;;;;;8.63;57.22;102172.59;5010248;28;108624;-70
2021/10/16 01:10:49;;;;;;;5.47;2.78;;;;;;;8.61;57.49;102169.09;5012255;28;122866;-70
2021/10/16 01:13:17;;;;;;;7.25;3.47;;;;;;;8.61;57.18;102166.44;5000073;28;123010;-70
2021/10/16 01:15:45;;;;;;;9.25;3.50;;;;;;;8.61;57.60;102169.09;4997078;28;108108;-69
2021/10/16 01:18:13;;;;;;;7.15;3.72;;;;;;;8.60;57.45;102167.34;4998933;28;108585;-70
2021/10/16 01:20:46;;;;;;;7.05;3.40;;;;;;;8.60;57.61;102167.34;4977145;28;124104;-70
2021/10/16 01:23:14;;;;;;;6.20;3.15;;;;;;;8.60;57.46;102156.78;4998139;28;123240;-70
2021/10/16 01:25:42;;;;;;;7.53;3.15;;;;;;;8.59;57.40;102160.31;4994659;28;110182;-70
2021/10/16 01:28:13;;;;;;;8.30;3.47;;;;;;;8.58;57.51;102158.56;5000186;28;109167;-70
2021/10/16 01:30:41;;;;;;;10.85;3.70;;;;;;;8.57;57.34;102156.84;4994451;28;123685;-70
2021/10/16 01:33:08;;;;;;;7.93;3.30;;;;;;;8.56;57.10;102155.06;5002323;28;124181;-70
2021/10/16 01:35:35;;;;;;;6.13;2.97;;;;;;;8.54;57.07;102151.59;5012814;28;109501;-70
2021/10/16 01:38:02;;;;;;;6.95;3.33;;;;;;;8.52;57.67;102150.75;5000214;28;108786;-70
2021/10/16 01:40:29;;;;;;;4.75;2.88;;;;;;;8.52;57.36;102159.53;4995748;28;124305;-70
2021/10/16 01:42:56;;;;;;;9.52;3.08;;;;;;;8.50;57.20;102157.81;4998666;28;124139;-70
2021/10/16 01:45:24;;;;;;;6.10;2.90;;;;;;;8.48;57.30;102151.69;4993078;28;108435;-70
2021/10/16 01:47:56;;;;;;;9.38;3.13;;;;;;;8.48;57.22;102146.41;4997132;28;108050;-70
2021/10/16 01:50:37;;;;;;;7.10;3.03;;;;;;;8.45;57.26;102147.31;4996802;28;122865;-70
2021/10/16 01:53:09;;;;;;;8.43;3.08;;;;;;;8.44;57.24;102144.69;4979800;28;124043;-70
2021/10/16 01:55:38;;;;;;;6.38;3.08;;;;;;;8.42;57.30;102157.03;4994416;28;108464;-70
2021/10/16 01:58:07;;;;;;;8.05;3.38;;;;;;;8.36;57.35;102164.16;4996760;28;108835;-72
2021/10/16 02:00:44;;;;;;;7.68;3.90;;;;;;;8.28;57.06;102150.16;5001819;28;123220;-70
2021/10/16 02:03:12;;;;;;;6.07;3.42;;;;;;;8.25;57.31;102152.88;4997863;28;123705;-70
2021/10/16 02:05:52;;;;;;;7.95;3.80;;;;;;;8.20;57.26;102152.06;4996010;28;108302;-70
2021/10/16 02:08:31;;;;;;;10.45;3.97;;;;;;;8.16;57.37;102166.19;5012809;28;108591;-70
2021/10/16 02:10:58;;;;;;;12.27;3.90;;;;;;;8.13;57.32;102155.66;4993804;28;124199;-70
2021/10/16 02:13:33;;;;;;;7.95;4.45;;;;;;;8.10;57.24;102166.25;5012382;28;122997;-70
2021/10/16 02:16:05;;;;;;;8.90;4.47;;;;;;;8.09;57.46;102153.97;4998623;28;109877;-70
2021/10/16 02:18:47;;;;;;;10.02;4.88;;;;;;;8.06;57.23;102154.91;4997031;28;109437;-70
2021/10/16 02:21:18;;;;;;;10.95;4.70;;;;;;;8.04;57.41;102155.78;4997331;28;123825;-71
2021/10/16 02:23:45;;;;;;;15.38;4.80;;;;;;;8.05;57.33;102152.28;4997014;28;123807;-70
2021/10/16 02:26:15;;;;;;;9.10;4.72;;;;;;;8.02;57.37;102163.72;4995014;28;107470;-70
2021/10/16 02:28:46;;;;;;;9.35;4.30;;;;;;;8.02;57.44;102162.84;4994754;28;108387;-70
2021/10/16 02:31:22;;;;;;;8.68;4.40;;;;;;;8.01;57.78;102163.78;4995534;28;123151;-70
2021/10/16 02:33:52;;;;;;;10.25;4.85;;;;;;;8.00;57.67;102165.50;5001691;28;122906;-70
2021/10/16 02:36:22;;;;;;;10.70;4.32;;;;;;;7.98;57.69;102168.16;4996216;28;108367;-70
2021/10/16 02:38:49;;;;;;;11.45;5.07;;;;;;;7.97;57.57;102166.44;4993620;28;109048;-70
2021/10/16 02:41:18;;;;;;;10.68;4.97;;;;;;;7.95;57.55;102170.84;4991537;28;122994;-70
2021/10/16 02:43:46;;;;;;;13.25;5.45;;;;;;;7.94;57.50;102161.19;4996397;28;123151;-69
2021/10/16 02:46:13;;;;;;;10.48;4.97;;;;;;;7.93;57.70;102171.75;4995316;28;108336;-70
2021/10/16 02:48:40;;;;;;;17.00;5.32;;;;;;;7.93;57.50;102170.00;4995859;28;109014;-70
2021/10/16 02:51:07;;;;;;;10.48;5.40;;;;;;;7.92;57.44;102165.59;4994953;28;124100;-70
2021/10/16 02:53:35;;;;;;;12.02;4.88;;;;;;;7.91;57.60;102171.78;4991425;28;123693;-70
2021/10/16 02:56:11;;;;;;;;;;;;;;;7.89;57.66;102170.94;4992023;28;108310;-70
2021/10/16 02:58:39;;;;;;;13.68;5.00;;;;;;;7.90;57.37;102163.91;4997684;28;107880;-70
2021/10/16 03:01:06;;;;;;;11.20;5.10;;;;;;;7.89;57.42;102178.84;4993871;28;122981;-69
2021/10/16 03:03:34;;;;;;;9.82;4.57;;;;;;;7.87;57.82;102170.06;4998188;28;123003;-70
2021/10/16 03:06:01;;;;;;;12.15;5.90;;;;;;;7.89;57.69;102163.03;4993005;28;109623;-70
2021/10/16 03:08:31;;;;;;;8.27;5.03;;;;;;;7.88;58.12;102166.53;5011164;28;109364;-69
2021/10/16 03:11:00;;;;;;;13.95;5.38;;;;;;;7.90;58.25;102172.66;4993365;28;123519;-70
2021/10/16 03:13:38;;;;;;;10.57;5.13;;;;;;;7.92;57.95;102172.66;4994214;28;124103;-70
2021/10/16 03:16:08;;;;;;;10.10;5.22;;;;;;;7.93;57.91;102175.28;4975301;28;107590;-70
2021/10/16 03:18:38;;;;;;;7.82;4.38;;;;;;;7.96;58.04;102174.34;4980204;28;108131;-69
2021/10/16 03:21:06;;;;;;;9.75;4.90;;;;;;;7.98;57.93;102168.16;4995393;28;123219;-70
2021/10/16 03:23:33;;;;;;;9.30;4.55;;;;;;;8.01;58.31;102166.41;4992965;28;124454;-70
2021/10/16 03:26:00;;;;;;;11.38;4.55;;;;;;;8.03;58.16;102164.63;4980198;28;108211;-69
2021/10/16 03:28:28;;;;;;;9.77;4.50;;;;;;;8.05;58.30;102158.41;4993415;28;108358;-70
2021/10/16 03:30:55;;;;;;;7.70;4.15;;;;;;;8.06;58.38;102159.28;4993640;28;123349;-70
2021/10/16 03:33:22;;;;;;;10.40;4.30;;;;;;;8.09;58.31;102167.16;4991976;28;122649;-70
2021/10/16 03:35:50;;;;;;;10.15;4.30;;;;;;;8.10;58.28;102171.53;5008929;28;108778;-70
2021/10/16 03:38:17;;;;;;;11.55;4.53;;;;;;;8.10;58.02;102176.81;4994507;28;108551;-70
2021/10/16 03:40:44;;;;;;;7.85;4.15;;;;;;;8.08;58.40;102162.75;4992947;28;124155;-70
2021/10/16 03:43:11;;;;;;;8.32;4.47;;;;;;;8.06;58.20;102169.84;4996939;28;123896;-70
2021/10/16 03:45:38;;;;;;;8.77;4.78;;;;;;;8.05;58.15;102166.31;5010224;28;107352;-69
2021/10/16 03:48:05;;;;;;;10.95;4.53;;;;;;;8.06;58.36;102160.19;4997147;28;109644;-70
2021/10/16 03:50:34;;;;;;;10.00;4.78;;;;;;;8.10;58.39;102166.25;4992276;28;125481;-70
2021/10/16 03:53:02;;;;;;;10.55;4.75;;;;;;;8.12;58.16;102175.06;4976688;28;123402;-71
2021/10/16 03:55:29;;;;;;;8.63;4.30;;;;;;;8.14;58.38;102171.50;4993836;28;109908;-70
2021/10/16 03:57:57;;;;;;;13.77;5.32;;;;;;;8.15;58.77;102164.44;4992118;28;109205;-70
2021/10/16 04:00:24;;;;;;;11.30;5.25;;;;;;;8.18;58.73;102165.28;4978727;28;123327;-70
2021/10/16 04:03:03;;;;;;;10.98;5.28;;;;;;;8.23;58.91;102173.13;4995065;28;123643;-70
2021/10/16 04:05:33;;;;;;;13.80;4.63;;;;;;;8.26;59.02;102173.06;5011471;28;108644;-70
2021/10/16 04:08:01;;;;;;;10.10;5.20;;;;;;;8.30;58.58;102174.78;4994552;28;108063;-70
2021/10/16 04:10:32;;;;;;;15.70;5.72;;;;;;;8.31;58.85;102168.63;4979410;28;123507;-70
2021/10/16 04:12:59;;;;;;;13.45;5.10;;;;;;;8.33;59.00;102168.59;4992581;28;123482;-70
2021/10/16 04:15:27;;;;;;;11.77;5.40;;;;;;;8.37;59.37;102162.38;4991366;28;108289;-70
2021/10/16 04:17:55;;;;;;;11.20;5.65;;;;;;;8.39;59.20;102158.81;5009909;28;107334;-70
2021/10/16 04:20:22;;;;;;;14.57;5.55;;;;;;;8.46;59.06;102161.41;4994605;28;124049;-70
2021/10/16 04:22:52;;;;;;;14.40;5.82;;;;;;;8.52;59.34;102163.94;4992821;28;123424;-70
2021/10/16 04:25:19;;;;;;;12.35;5.18;;;;;;;8.56;58.90;102170.91;4991174;28;108238;-70
2021/10/16 04:27:47;;;;;;;10.05;5.28;;;;;;;8.59;59.28;102160.31;4998212;28;109291;-70
2021/10/16 04:30:25;;;;;;;13.35;5.38;;;;;;;8.64;59.32;102158.47;4992229;28;123305;-70
2021/10/16 04:32:52;;;;;;;10.48;4.65;;;;;;;8.68;59.34;102159.28;4979393;28;123973;-70
2021/10/16 04:35:19;;;;;;;10.05;4.65;;;;;;;8.73;59.15;102168.88;4976033;28;108751;-70
2021/10/16 04:37:47;;;;;;;12.88;5.32;;;;;;;8.77;59.23;102173.22;4991680;28;108639;-70
2021/10/16 04:40:18;;;;;;;10.05;4.95;;;;;;;8.81;59.47;102159.97;4990395;28;124087;-70
2021/10/16 04:42:48;;;;;;;10.90;4.97;;;;;;;8.83;59.58;102163.44;4996637;28;123019;-69
2021/10/16 04:45:16;;;;;;;9.70;4.88;;;;;;;8.87;59.68;102165.13;5003084;28;109735;-70
2021/10/16 04:47:45;;;;;;;12.25;5.78;;;;;;;8.91;59.50;102156.25;4997764;28;108985;-70
2021/10/16 04:50:13;;;;;;;12.85;5.32;;;;;;;8.96;59.31;102157.06;4994512;28;123022;-71
2021/10/16 04:52:44;;;;;;;13.90;5.32;;;;;;;9.00;59.46;102150.81;4994118;28;123478;-69
2021/10/16 04:55:21;;;;;;;11.23;5.22;;;;;;;9.03;59.31;102158.72;4997103;28;108416;-70
2021/10/16 04:57:48;;;;;;;10.20;5.30;;;;;;;9.06;59.31;102166.59;4992307;28;109586;-70
2021/10/16 05:00:16;;;;;;;12.98;5.70;;;;;;;9.11;59.62;102159.44;5009865;28;123008;-70
2021/10/16 05:02:44;;;;;;;11.98;5.38;;;;;;;9.15;59.63;102155.88;5002451;28;123489;-71
2021/10/16 05:05:11;;;;;;;11.38;5.40;;;;;;;9.20;59.53;102162.84;4987229;28;108905;-70
2021/10/16 05:07:40;;;;;;;12.20;5.30;;;;;;;9.24;59.36;102172.44;5010597;28;108478;-70
2021/10/16 05:10:09;;;;;;;10.30;5.32;;;;;;;9.25;59.71;102175.06;5001583;28;123338;-70
2021/10/16 05:12:36;;;;;;;16.48;5.97;;;;;;;9.29;59.84;102170.59;4999958;28;123280;-70
2021/10/16 05:15:04;;;;;;;11.18;4.90;;;;;;;9.32;59.59;102159.94;4984145;28;108788;-70
2021/10/16 05:17:34;;;;;;;16.80;5.63;;;;;;;9.36;59.71;102164.28;4980680;28;109131;-70
2021/10/16 05:20:06;;;;;;;12.40;5.25;;;;;;;9.41;59.54;102158.91;5000906;28;124183;-71
2021/10/16 05:22:41;;;;;;;15.50;5.80;;;;;;;9.43;59.44;102155.31;4998087;28;123327;-70
2021/10/16 05:25:10;;;;;;;10.25;4.95;;;;;;;9.47;59.54;102154.34;4997913;28;108147;-70
2021/10/16 05:27:38;;;;;;;9.88;4.95;;;;;;;9.49;59.63;102155.22;4998691;28;108648;-70
2021/10/16 05:30:06;;;;;;;11.15;5.05;;;;;;;9.51;59.53;102164.00;5004874;28;123944;-71
2021/10/16 05:32:36;;;;;;;12.27;5.18;;;;;;;9.53;59.55;102159.56;4997980;28;123369;-71
2021/10/16 05:35:07;;;;;;;11.85;5.00;;;;;;;9.55;59.84;102155.09;4998630;28;110029;-71
2021/10/16 05:37:34;;;;;;;10.00;5.07;;;;;;;9.60;59.60;102167.34;4994458;28;107719;-71
2021/10/16 05:40:02;;;;;;;11.05;4.53;;;;;;;9.63;59.93;102162.03;4998443;28;123894;-71
2021/10/16 05:42:30;;;;;;;10.25;4.72;;;;;;;9.65;59.70;102160.22;4995199;28;123681;-70
2021/10/16 05:45:01;;;;;;;12.75;5.00;;;;;;;9.68;59.59;102154.84;4995778;28;109830;-71
2021/10/16 05:47:29;;;;;;;12.55;5.13;;;;;;;9.71;59.74;102165.38;5001904;28;108901;-71
2021/10/16 05:49:56;;;;;;;9.70;4.75;;;;;;;9.77;59.72;102167.88;5008239;28;125296;-71
2021/10/16 05:52:23;;;;;;;11.73;4.60;;;;;;;9.80;59.93;102165.19;4998263;28;123675;-70
2021/10/16 05:54:50;;;;;;;8.75;4.45;;;;;;;9.83;59.87;102159.84;4993860;28;107619;-70
2021/10/16 05:57:18;;;;;;;8.68;4.15;;;;;;;9.87;59.87;102171.22;5011504;28;108089;-71
2021/10/16 05:59:45;;;;;;;10.75;4.18;;;;;;;9.90;59.83;102169.38;4991542;28;123286;-70
2021/10/16 06:02:13;;;;;;;8.18;4.30;;;;;;;9.96;59.78;102170.16;4993423;28;123080;-71
2021/10/16 06:04:42;;;;;;;10.05;4.25;;;;;;;10.00;59.93;102166.53;4997413;28;108985;-70
2021/10/16 06:07:10;;;;;;;7.72;4.13;;;;;;;10.03;60.08;102177.06;4995688;28;108389;-70
2021/10/16 06:09:40;;;;;;;8.35;3.90;;;;;;;10.07;60.07;102174.31;5009342;28;123628;-70
2021/10/16 06:12:07;;;;;;;8.32;4.53;;;;;;;10.10;59.88;102183.97;4980646;28;123471;-70
2021/10/16 06:14:35;;;;;;;10.32;4.85;;;;;;;10.10;59.89;102178.69;4993628;28;108841;-71
2021/10/16 06:17:15;;;;;;;12.25;4.75;;;;;;;10.10;59.76;102176.91;4993346;28;110351;-71
2021/10/16 06:19:45;;;;;;;10.40;4.65;;;;;;;10.13;60.14;102178.59;4997176;28;124027;-71
2021/10/16 06:22:12;;;;;;;9.57;4.75;;;;;;;10.17;60.03;102179.41;4995160;28;122914;-71
2021/10/16 06:24:42;;;;;;;9.93;4.60;;;;;;;10.20;60.16;102169.63;4985811;28;110096;-71
2021/10/16 06:27:09;;;;;;;11.52;4.68;;;;;;;10.23;60.15;102188.09;4979492;28;108357;-71
2021/10/16 06:29:36;;;;;;;9.20;4.78;;;;;;;10.26;60.00;102180.06;4993774;28;124404;-71
2021/10/16 06:32:03;;;;;;;10.95;4.88;;;;;;;10.30;60.23;102181.81;4998157;28;123767;-71
2021/10/16 06:34:31;;;;;;;9.20;4.38;;;;;;;10.36;60.36;102171.97;4998440;28;108728;-71
2021/10/16 06:36:58;;;;;;;10.75;5.00;;;;;;;10.41;60.08;102175.38;5003224;28;108250;-71
2021/10/16 06:39:26;;;;;;;8.48;3.95;;;;;;;10.45;60.36;102174.41;4982482;28;123470;-71
2021/10/16 06:41:59;;;;;;;14.68;3.92;;;;;;;10.51;60.44;102179.56;5013240;28;123311;-71
2021/10/16 06:44:26;;;;;;;9.77;3.63;;;;;;;10.56;60.24;102176.81;5002870;28;109059;-71
2021/10/16 06:47:19;;;;;;;7.07;3.10;;;;;;;10.61;60.41;102186.38;4992650;28;108458;-71
2021/10/16 06:49:46;;;;;;;10.85;3.65;;;;;;;10.65;60.36;102172.16;4987152;28;124205;-71
2021/10/16 06:52:14;;;;;;;10.98;3.40;;;;;;;10.70;60.20;102180.88;5001152;28;122406;-72
2021/10/16 06:54:41;;;;;;;10.25;3.97;;;;;;;10.76;60.10;102179.84;4982032;28;108791;-71
2021/10/16 06:57:10;;;;;;;14.30;4.05;;;;;;;10.81;60.48;102187.69;4992127;28;108534;-71
2021/10/16 06:59:38;;;;;;;8.32;3.13;;;;;;;10.85;60.39;102178.75;5000814;28;123402;-71
2021/10/16 07:02:07;;;;;;;8.38;3.40;;;;;;;10.89;60.22;102180.44;4977769;28;123419;-71
2021/10/16 07:04:45;;;;;;;9.38;3.78;;;;;;;10.93;60.21;102187.38;5003917;28;109230;-70
2021/10/16 07:07:12;;;;;;;6.97;3.22;;;;;;;10.97;60.09;102188.19;4999028;28;108764;-71
2021/10/16 07:09:47;;;;;;;10.57;3.28;;;;;;;11.02;60.26;102187.16;4997222;28;123237;-71
2021/10/16 07:12:14;;;;;;;9.18;3.58;;;;;;;11.07;60.06;102185.25;5012200;28;123631;-71
2021/10/16 07:14:41;;;;;;;10.10;3.58;;;;;;;11.10;59.90;102190.47;5008435;28;110030;-70
2021/10/16 07:17:12;;;;;;;8.75;3.63;;;;;;;11.16;59.97;102186.78;5008988;28;109066;-70
2021/10/16 07:19:40;;;;;;;9.18;3.65;;;;;;;11.21;59.71;102192.00;5007795;28;124364;-70
2021/10/16 07:22:07;;;;;;;8.48;3.60;;;;;;;11.25;60.01;102191.00;5008597;28;122769;-70
2021/10/16 07:24:34;;;;;;;8.80;3.30;;;;;;;11.29;59.89;102195.31;5011294;28;108509;-71
2021/10/16 07:27:02;;;;;;;11.68;3.42;;;;;;;11.34;60.12;102198.72;5011729;28;108848;-71
2021/10/16 07:29:29;;;;;;;10.25;3.22;;;;;;;11.39;59.92;102202.09;4998831;28;123693;-71
2021/10/16 07:31:56;;;;;;;8.88;3.10;;;;;;;11.42;59.98;102196.72;4993211;28;124628;-71
2021/10/16 07:34:23;;;;;;;8.60;3.22;;;;;;;11.44;59.82;102194.91;4998777;28;108859;-71
2021/10/16 07:36:50;;;;;;;7.20;3.15;;;;;;;11.46;60.08;102198.38;4994344;28;109191;-71
2021/10/16 07:39:17;;;;;;;11.50;3.75;;;;;;;11.51;60.07;102200.91;4996564;28;123696;-72
2021/10/16 07:41:47;;;;;;;7.75;3.80;;;;;;;11.56;59.89;102208.75;4974184;28;123378;-71
2021/10/16 07:44:15;;;;;;;10.25;3.45;;;;;;;11.59;60.23;102208.66;4995845;28;109076;-71
2021/10/16 07:46:43;;;;;;;11.90;3.80;;;;;;;11.63;59.92;102210.31;5000818;28;108986;-72
2021/10/16 07:49:11;;;;;;;11.32;3.95;;;;;;;11.68;60.14;102208.41;4995293;28;122827;-72
2021/10/16 07:51:38;;;;;;;11.73;4.20;;;;;;;11.75;60.22;102207.31;4996030;28;123659;-71
2021/10/16 07:54:05;;;;;;;12.30;3.50;;;;;;;11.81;60.14;102217.78;5012127;28;109001;-72
2021/10/16 07:56:32;;;;;;;9.10;3.88;;;;;;;11.86;60.21;102218.50;4994795;28;108630;-71
2021/10/16 08:33:37;;;;;;;9.60;4.03;;;;;;;12.48;59.76;102224.69;5386382;23;98990;-73
2021/10/16 08:36:07;;;;;;;10.18;3.78;;;;;;;12.54;59.71;102221.84;4864621;28;124563;-73
2021/10/16 08:38:34;;;;;;;9.18;3.60;;;;;;;12.58;59.98;102210.22;4876400;28;124899;-71
2021/10/16 08:41:01;;;;;;;7.32;3.65;;;;;;;12.64;60.04;102223.31;4877927;28;109200;-70
2021/10/16 08:43:28;;;;;;;11.48;3.67;;;;;;;12.72;59.90;102230.19;4860416;28;108050;-71
2021/10/16 08:46:01;;;;;;;10.32;3.85;;;;;;;12.77;59.68;102222.91;4858856;29;124022;-70
2021/10/16 08:48:29;;;;;;;11.13;3.30;;;;;;;12.83;59.79;102222.72;4857750;29;123778;-71
2021/10/16 08:50:58;;;;;;;13.93;3.83;;;;;;;12.90;59.63;102224.25;4860796;29;109903;-71
2021/10/16 08:53:26;;;;;;;8.48;3.50;;;;;;;12.95;59.78;102224.97;4860461;29;108948;-71
2021/10/16 08:55:54;;;;;;;10.75;3.33;;;;;;;12.99;59.65;102229.25;4857938;29;124162;-71
2021/10/16 08:58:22;;;;;;;9.07;3.28;;;;;;;13.04;59.53;102227.31;4858780;29;123793;-71
2021/10/16 09:00:52;;;;;;;11.02;3.25;;;;;;;13.09;59.58;102231.63;4858392;29;110033;-71
2021/10/16 09:03:33;;;;;;;9.23;3.35;;;;;;;13.14;59.35;102232.34;4859557;28;109777;-71
2021/10/16 09:06:05;;;;;;;10.63;3.08;;;;;;;13.19;59.42;102225.09;4858243;29;125101;-71
2021/10/16 09:08:38;;;;;;;9.80;3.28;;;;;;;13.24;59.60;102233.75;4859977;29;124250;-72
2021/10/16 09:11:13;;;;;;;8.38;3.20;;;;;;;13.29;59.52;102226.50;4839845;29;108432;-71
2021/10/16 09:13:46;;;;;;;11.10;3.20;;;;;;;13.36;59.45;102238.72;4858965;29;109049;-71
2021/10/16 09:16:26;;;;;;;13.25;3.50;;;;;;;13.42;59.40;102243.81;4857649;29;124195;-71
2021/10/16 09:19:01;;;;;;;8.13;3.17;;;;;;;13.48;59.44;102241.88;4857705;29;124711;-71
2021/10/16 09:21:31;;;;;;;10.60;3.00;;;;;;;13.52;59.34;102238.16;4858767;28;112983;-73
2021/10/16 09:24:05;;;;;;;7.30;2.85;;;;;;;13.57;59.33;102241.56;4858777;28;108401;-70
2021/10/16 09:26:34;;;;;;;9.85;2.97;;;;;;;13.62;59.29;102239.59;4838180;29;124085;-71
2021/10/16 09:29:04;;;;;;;7.10;3.17;;;;;;;13.71;59.38;102246.38;4871154;29;124748;-71
2021/10/16 09:31:36;;;;;;;11.73;3.47;;;;;;;13.76;59.34;102237.28;4857939;29;109566;-71
2021/10/16 09:34:04;;;;;;;8.63;3.45;;;;;;;13.83;59.24;102236.16;4858873;29;108208;-71
2021/10/16 09:36:34;;;;;;;8.50;3.35;;;;;;;13.89;59.06;102236.88;4858251;29;125497;-71
2021/10/16 09:39:02;;;;;;;9.23;3.05;;;;;;;13.92;59.32;102237.63;4859135;29;123870;-71
2021/10/16 09:41:33;;;;;;;12.07;2.95;;;;;;;13.97;59.05;102237.44;4863525;29;109668;-74
2021/10/16 09:44:02;;;;;;;11.63;2.90;;;;;;;14.01;58.95;102239.06;4873651;29;110013;-73
2021/10/16 09:46:30;;;;;;;14.48;3.65;;;;;;;14.07;58.89;102244.19;4859549;28;123782;-73
2021/10/16 09:49:06;;;;;;;15.52;3.30;;;;;;;14.11;58.88;102243.13;4858982;29;123780;-72
2021/10/16 09:51:49;;;;;;;16.67;3.58;;;;;;;14.15;58.77;102244.75;4854465;29;111688;-74
2021/10/16 09:54:16;;;;;;;11.93;2.97;;;;;;;14.19;58.63;102243.72;4855940;29;110094;-74
2021/10/16 09:56:44;;;;;;;11.43;3.38;;;;;;;14.25;58.53;102241.75;4861090;29;124435;-73
2021/10/16 09:59:17;;;;;;;12.43;3.83;;;;;;;14.28;58.50;102239.84;4857498;29;124686;-73
2021/10/16 10:01:46;;;;;;;7.32;3.08;;;;;;;14.32;58.37;102245.94;4856840;29;109347;-72
2021/10/16 10:04:18;;;;;;;11.35;3.60;;;;;;;14.34;58.44;102238.75;4856891;29;108229;-73
2021/10/16 10:06:47;;;;;;;8.80;3.35;;;;;;;14.38;58.48;102240.34;4851782;29;124370;-72
2021/10/16 10:09:15;;;;;;;9.68;3.67;;;;;;;14.43;58.56;102237.50;4858001;29;125567;-72
2021/10/16 10:11:47;;;;;;;7.07;3.35;;;;;;;14.48;58.48;102241.72;4842290;28;108594;-72
2021/10/16 10:14:17;;;;;;;11.07;3.85;;;;;;;14.55;58.43;102242.34;4855131;29;109406;-72
2021/10/16 10:16:56;;;;;;;10.20;3.45;;;;;;;14.63;58.48;102240.28;4856040;29;124768;-72
2021/10/16 10:19:23;;;;;;;11.65;3.50;;;;;;;14.72;58.36;102233.72;4853215;29;123924;-73
2021/10/16 10:21:51;;;;;;;9.63;3.40;;;;;;;14.77;58.23;102237.09;4864558;28;110387;-71
2021/10/16 10:24:18;;;;;;;8.48;3.30;;;;;;;14.83;58.16;102239.50;4852818;29;108422;-70
2021/10/16 10:26:48;;;;;;;8.07;3.03;;;;;;;14.89;58.04;102241.03;4858859;29;123883;-70
2021/10/16 10:29:18;;;;;;;12.10;3.10;;;;;;;14.93;57.75;102232.84;4855417;28;123457;-71
2021/10/16 10:31:45;;;;;;;10.13;3.30;;;;;;;14.98;57.83;102233.53;4857172;28;108420;-71
2021/10/16 10:34:13;;;;;;;10.35;2.90;;;;;;;15.03;57.62;102235.13;4857925;29;109104;-71
2021/10/16 10:36:57;;;;;;;7.15;3.08;;;;;;;15.07;57.49;102236.72;4856290;29;123952;-71
2021/10/16 10:39:30;;;;;;;9.50;3.10;;;;;;;15.12;57.18;102232.06;4852762;29;124647;-71
2021/10/16 10:42:21;;;;;;;8.65;3.10;;;;;;;15.17;57.42;102240.78;4852450;28;109318;-70
2021/10/16 10:44:52;;;;;;;11.13;2.80;;;;;;;15.27;57.40;102230.56;4833849;29;108746;-71
2021/10/16 10:47:29;;;;;;;11.60;3.05;;;;;;;15.35;57.36;102240.00;4856598;28;124451;-71
2021/10/16 10:49:58;;;;;;;8.50;2.90;;;;;;;15.43;57.28;102236.13;4857828;28;122878;-71
2021/10/16 10:52:28;;;;;;;10.85;3.22;;;;;;;15.50;57.01;102226.91;4859053;29;108925;-72
2021/10/16 10:54:58;;;;;;;9.80;2.70;;;;;;;15.58;56.91;102227.44;4856589;29;108678;-71
2021/10/16 10:57:44;;;;;;;9.07;2.78;;;;;;;15.64;56.82;102223.66;4857681;29;123716;-71
2021/10/16 11:00:13;;;;;;;11.05;3.10;;;;;;;15.73;56.75;102223.22;4851748;29;124413;-71
2021/10/16 11:02:41;;;;;;;7.53;3.00;;;;;;;15.81;56.73;102225.59;4856096;29;108128;-71
2021/10/16 11:05:29;;;;;;;8.77;3.10;;;;;;;15.90;56.60;102222.50;4858982;29;109254;-71
2021/10/16 11:08:08;;;;;;;6.78;3.22;;;;;;;16.00;56.57;102221.13;4849179;29;124535;-71
2021/10/16 11:10:36;;;;;;;8.75;2.80;;;;;;;16.08;56.28;102218.97;4854350;28;122719;-71
2021/10/16 11:13:11;;;;;;;9.10;3.17;;;;;;;16.15;56.22;102215.09;4856330;29;108562;-71
2021/10/16 11:15:40;;;;;;;8.18;2.90;;;;;;;16.23;56.28;102206.69;4858070;29;109249;-71
2021/10/16 11:18:13;;;;;;;9.15;2.75;;;;;;;16.32;55.96;102210.75;4853634;29;124248;-71
2021/10/16 11:20:41;;;;;;;9.02;2.70;;;;;;;16.41;55.67;102215.66;4855579;29;125097;-70
2021/10/16 11:23:23;;;;;;;11.00;2.95;;;;;;;16.46;55.32;102213.66;4856669;28;108108;-71
2021/10/16 11:26:12;;;;;;;6.70;2.50;;;;;;;16.53;55.63;102209.72;4870360;28;107980;-71
2021/10/16 11:28:42;;;;;;;7.63;2.70;;;;;;;16.62;55.14;102204.88;4857663;29;124002;-70
2021/10/16 11:31:10;;;;;;;9.65;2.92;;;;;;;16.68;55.21;102208.09;4854698;29;123622;-71
2021/10/16 11:33:40;;;;;;;11.43;2.78;;;;;;;16.77;54.81;102205.94;4857929;29;110866;-71
2021/10/16 11:36:09;;;;;;;9.45;3.08;;;;;;;16.82;54.59;102204.81;4858866;29;109960;-71
2021/10/16 11:38:38;;;;;;;7.43;3.08;;;;;;;16.85;54.36;102201.97;4858607;29;123736;-71
2021/10/16 11:41:09;;;;;;;10.05;3.10;;;;;;;16.89;54.06;102195.50;4852308;29;124686;-70
2021/10/16 11:43:38;;;;;;;8.95;2.85;;;;;;;16.92;53.97;102190.00;4858449;28;109026;-71
2021/10/16 11:46:16;;;;;;;5.85;2.40;;;;;;;16.99;53.74;102184.34;4859321;29;108977;-71
2021/10/16 11:48:44;;;;;;;9.30;2.20;;;;;;;17.05;53.65;102187.59;4851067;29;124818;-71
2021/10/16 11:51:11;;;;;;;7.85;2.28;;;;;;;17.12;53.65;102185.44;4856790;29;123144;-71
2021/10/16 11:53:40;;;;;;;7.07;2.00;;;;;;;17.19;53.50;102184.19;4855067;29;109453;-71
2021/10/16 11:56:10;;;;;;;7.32;1.80;;;;;;;17.26;53.15;102177.56;4857064;28;107793;-71
2021/10/16 11:58:39;;;;;;;9.30;1.98;;;;;;;17.32;52.79;102179.94;4855105;29;123860;-71
2021/10/16 12:01:08;;;;;;;8.18;1.60;;;;;;;17.35;51.92;102167.31;4854938;29;123985;-72
2021/10/16 12:03:40;;;;;;;5.90;1.88;;;;;;;17.35;51.80;102164.66;4855880;29;108951;-72